Time;durP1;ratioP1;P1;durP2;ratioP2;P2;SDS_P1;SDS_P2;PMS_P1;PMS_P2;Temp;Humidity;BMP_temperature;BMP_pressure;BME280_temperature;BME280_humidity;BME280_pressure;Samples;Min_cycle;Max_cycle;Signal;HPM_P1;HPM_P2
2023/04/21 00:00:59;;;;;;;2.28;0.60;;;10.20;99.90;;;;;;5024335;28;20038;-62
2023/04/21 00:03:26;;;;;;;0.45;0.45;;;10.20;99.90;;;;;;5026551;28;20048;-62
2023/04/21 00:05:55;;;;;;;0.20;0.20;;;10.10;99.90;;;;;;5013283;28;20433;-62
2023/04/21 00:08:21;;;;;;;0.75;0.75;;;10.10;99.90;;;;;;5026747;28;20099;-62
2023/04/21 00:10:46;;;;;;;0.25;0.25;;;10.10;99.90;;;;;;5027717;28;20132;-62
2023/04/21 00:13:12;;;;;;;0.40;0.40;;;10.10;99.90;;;;;;5018480;28;20160;-62
2023/04/21 00:15:38;;;;;;;0.10;0.10;;;10.00;99.90;;;;;;5031802;28;20085;-62
2023/04/21 00:18:05;;;;;;;1.25;1.25;;;10.00;99.90;;;;;;5032929;28;20535;-62
2023/04/21 00:20:31;;;;;;;0.65;0.65;;;10.00;99.90;;;;;;5018340;28;20037;-62
2023/04/21 00:22:57;;;;;;;0.17;0.17;;;9.90;99.90;;;;;;5029535;28;20045;-62
2023/04/21 00:25:24;;;;;;;2.47;0.93;;;9.90;99.90;;;;;;5022431;28;20046;-62
2023/04/21 00:27:50;;;;;;;0.30;0.30;;;9.90;99.90;;;;;;5029851;28;20401;-62
2023/04/21 00:30:15;;;;;;;1.02;0.73;;;9.90;99.90;;;;;;5032123;28;20092;-62
2023/04/21 00:32:41;;;;;;;0.52;0.52;;;9.90;99.90;;;;;;5018149;28;20042;-62
2023/04/21 00:35:07;;;;;;;0.15;0.15;;;9.90;99.90;;;;;;5021082;28;20041;-62
2023/04/21 00:37:33;;;;;;;0.20;0.20;;;9.90;99.90;;;;;;5026365;28;20037;-62
2023/04/21 00:39:59;;;;;;;1.65;1.55;;;9.90;99.90;;;;;;5020254;28;20107;-62
2023/04/21 00:42:25;;;;;;;0.52;0.52;;;9.80;99.90;;;;;;5018736;28;20060;-62
2023/04/21 00:44:53;;;;;;;2.65;2.17;;;9.80;99.90;;;;;;5031882;28;20081;-62
2023/04/21 00:47:19;;;;;;;6.22;1.73;;;9.80;99.90;;;;;;5025673;28;20037;-62
2023/04/21 00:49:45;;;;;;;0.55;0.55;;;9.80;99.90;;;;;;5022542;28;20167;-62
2023/04/21 00:52:12;;;;;;;0.70;0.70;;;9.80;99.90;;;;;;5019148;28;20497;-62
2023/04/21 00:54:39;;;;;;;1.52;1.42;;;9.70;99.90;;;;;;5032580;28;20485;-62
2023/04/21 00:57:06;;;;;;;1.33;1.27;;;9.80;99.90;;;;;;5029093;28;20037;-62
2023/04/21 00:59:32;;;;;;;0.80;0.20;;;9.80;99.90;;;;;;5024702;28;20037;-62
2023/04/21 01:01:58;;;;;;;2.13;1.23;;;9.70;99.90;;;;;;5015990;28;20490;-62
2023/04/21 01:04:24;;;;;;;0.10;0.10;;;9.70;99.90;;;;;;5023388;28;20184;-62
2023/04/21 01:06:50;;;;;;;0.15;0.15;;;9.70;99.90;;;;;;5014215;28;20042;-62
2023/04/21 01:09:16;;;;;;;1.35;1.25;;;9.70;99.90;;;;;;5015856;28;20145;-62
2023/04/21 01:11:41;;;;;;;0.95;0.95;;;9.70;99.90;;;;;;5029872;28;20500;-62
2023/04/21 01:14:07;;;;;;;1.25;0.80;;;9.70;99.90;;;;;;5027876;28;20037;-62
2023/04/21 01:16:33;;;;;;;2.67;2.15;;;9.70;99.90;;;;;;5021040;28;20411;-62
2023/04/21 01:19:00;;;;;;;1.63;1.52;;;9.70;99.90;;;;;;5028942;28;20389;-62
2023/04/21 01:21:27;;;;;;;4.68;1.42;;;9.70;99.90;;;;;;5013991;28;20045;-62
2023/04/21 01:23:53;;;;;;;0.55;0.55;;;9.60;99.90;;;;;;5024073;28;20061;-62
2023/04/21 01:26:20;;;;;;;0.35;0.25;;;9.60;99.90;;;;;;5028573;28;20088;-62
2023/04/21 01:28:47;;;;;;;5.85;1.98;;;9.60;99.90;;;;;;5026739;28;20133;-62
2023/04/21 01:31:14;;;;;;;0.10;0.10;;;9.60;99.90;;;;;;5023549;28;20073;-61
2023/04/21 01:33:40;;;;;;;1.42;1.40;;;9.60;99.90;;;;;;5012168;28;20045;-62
2023/04/21 01:36:06;;;;;;;1.00;1.00;;;9.50;99.90;;;;;;5025596;28;20038;-62
2023/04/21 01:38:32;;;;;;;0.10;0.10;;;9.50;99.90;;;;;;5014231;28;20100;-62
2023/04/21 01:40:57;;;;;;;2.10;0.73;;;9.50;99.90;;;;;;5021766;28;20029;-62
2023/04/21 01:43:24;;;;;;;1.23;1.13;;;9.50;99.90;;;;;;5016948;28;20144;-62
2023/04/21 01:45:50;;;;;;;1.65;1.55;;;9.50;99.90;;;;;;5016887;28;20041;-62
2023/04/21 01:48:16;;;;;;;0.63;0.63;;;9.50;99.90;;;;;;5031213;28;20041;-62
2023/04/21 01:50:42;;;;;;;0.63;0.63;;;9.40;99.90;;;;;;5024360;28;20030;-62
2023/04/21 01:53:07;;;;;;;0.55;0.55;;;9.50;99.90;;;;;;5018249;28;20049;-62
2023/04/21 01:55:33;;;;;;;0.32;0.32;;;9.40;99.90;;;;;;5030056;28;20410;-62
2023/04/21 01:57:59;;;;;;;1.73;1.63;;;9.40;99.90;;;;;;5031155;28;20062;-61
2023/04/21 02:00:25;;;;;;;0.45;0.45;;;9.40;99.90;;;;;;5018238;28;20037;-62
2023/04/21 02:02:51;;;;;;;1.15;1.05;;;9.40;99.90;;;;;;5023483;28;20481;-62
2023/04/21 02:05:16;;;;;;;4.55;2.85;;;9.30;99.90;;;;;;5022673;28;20049;-62
2023/04/21 02:07:42;;;;;;;0.30;0.30;;;9.30;99.90;;;;;;5022647;28;20493;-61
2023/04/21 02:10:08;;;;;;;0.55;0.55;;;9.40;99.90;;;;;;5017960;28;20451;-61
2023/04/21 02:12:34;;;;;;;0.25;0.25;;;9.30;99.90;;;;;;5023373;28;20046;-62
2023/04/21 02:14:59;;;;;;;1.75;1.65;;;9.30;99.90;;;;;;5027384;28;20088;-61
2023/04/21 02:17:25;;;;;;;1.38;1.27;;;9.30;99.90;;;;;;5019417;28;20069;-62
2023/04/21 02:19:51;;;;;;;0.63;0.52;;;9.40;99.90;;;;;;5024088;28;20045;-62
2023/04/21 02:22:16;;;;;;;0.40;0.40;;;9.30;99.90;;;;;;5014215;28;20045;-62
2023/04/21 02:24:42;;;;;;;0.60;0.60;;;9.30;99.90;;;;;;5029698;28;20057;-61
2023/04/21 02:27:08;;;;;;;0.20;0.20;;;9.40;99.90;;;;;;5028911;28;20045;-62
2023/04/21 02:29:33;;;;;;;2.17;0.73;;;9.40;99.90;;;;;;5012183;28;20071;-62
2023/04/21 02:31:59;;;;;;;1.05;0.95;;;9.30;99.90;;;;;;5023774;28;20191;-62
2023/04/21 02:34:25;;;;;;;0.88;0.88;;;9.30;99.90;;;;;;5022698;28;20125;-61
2023/04/21 02:36:50;;;;;;;0.90;0.90;;;9.30;99.90;;;;;;5010300;28;20081;-62
2023/04/21 02:39:16;;;;;;;0.60;0.60;;;9.30;99.90;;;;;;5028785;28;20496;-62
2023/04/21 02:41:41;;;;;;;0.43;0.43;;;9.30;99.90;;;;;;5016490;28;20038;-62
2023/04/21 02:44:07;;;;;;;7.28;2.20;;;9.20;99.90;;;;;;5017794;28;20051;-61
2023/04/21 02:46:32;;;;;;;1.80;0.93;;;9.20;99.90;;;;;;5019948;28;20042;-62
2023/04/21 02:48:58;;;;;;;0.50;0.50;;;9.30;99.90;;;;;;5029023;28;20045;-61
2023/04/21 02:51:24;;;;;;;1.67;1.58;;;9.20;99.90;;;;;;5024021;28;20080;-62
2023/04/21 02:53:50;;;;;;;9.45;2.80;;;9.20;99.90;;;;;;5020344;28;20520;-62
2023/04/21 02:56:15;;;;;;;3.10;1.52;;;9.20;99.90;;;;;;5022889;28;20042;-62
2023/04/21 02:58:41;;;;;;;5.05;1.75;;;9.20;99.90;;;;;;5018176;28;20041;-62
2023/04/21 03:01:06;;;;;;;0.15;0.15;;;9.20;99.90;;;;;;5030343;28;20041;-61
2023/04/21 03:03:32;;;;;;;1.80;1.38;;;9.20;99.90;;;;;;5023187;28;20041;-62
2023/04/21 03:06:03;;;;;;;0.63;0.63;;;9.20;99.90;;;;;;5022694;28;20041;-61
2023/04/21 03:08:29;;;;;;;0.50;0.50;;;9.10;99.90;;;;;;5029983;28;20049;-61
2023/04/21 03:10:56;;;;;;;0.85;0.85;;;9.10;99.90;;;;;;5018677;28;20536;-61
2023/04/21 03:13:23;;;;;;;0.40;0.40;;;9.20;99.90;;;;;;5021503;28;20038;-62
2023/04/21 03:15:49;;;;;;;0.43;0.43;;;9.10;99.90;;;;;;5019346;28;20050;-62
2023/04/21 03:18:15;;;;;;;0.13;0.13;;;9.20;99.90;;;;;;5029121;28;20058;-61
2023/04/21 03:20:40;;;;;;;0.32;0.32;;;9.10;99.90;;;;;;5030249;28;20128;-62
2023/04/21 03:23:06;;;;;;;0.52;0.52;;;9.10;99.90;;;;;;5017437;28;20052;-61
2023/04/21 03:25:32;;;;;;;1.52;1.30;;;9.10;99.90;;;;;;5019720;28;20045;-61
2023/04/21 03:27:57;;;;;;;0.47;0.47;;;9.10;99.90;;;;;;5013247;28;20034;-62
2023/04/21 03:30:25;;;;;;;0.20;0.20;;;9.10;99.90;;;;;;5023148;28;20040;-62
2023/04/21 03:32:50;;;;;;;1.65;1.55;;;9.10;99.90;;;;;;5025369;28;20615;-62
2023/04/21 03:35:16;;;;;;;0.88;0.88;;;9.00;99.90;;;;;;5022982;28;20081;-61
2023/04/21 03:37:42;;;;;;;1.50;1.40;;;9.00;99.90;;;;;;5016024;28;20037;-61
2023/04/21 03:40:08;;;;;;;0.60;0.60;;;9.10;99.90;;;;;;5029516;28;20122;-61
2023/04/21 03:42:34;;;;;;;0.95;0.95;;;9.00;99.90;;;;;;5023778;28;20049;-61
2023/04/21 03:45:07;;;;;;;0.20;0.20;;;9.00;99.90;;;;;;5021978;28;20049;-61
2023/04/21 03:47:33;;;;;;;0.30;0.30;;;9.00;99.90;;;;;;5028975;28;20048;-61
2023/04/21 03:49:59;;;;;;;3.33;2.13;;;9.00;99.90;;;;;;5019706;28;20049;-62
2023/04/21 03:52:25;;;;;;;0.98;0.65;;;9.00;99.90;;;;;;5021554;28;20049;-62
2023/04/21 03:54:50;;;;;;;0.75;0.68;;;9.10;99.90;;;;;;5032911;28;20199;-62
2023/04/21 03:57:16;;;;;;;0.10;0.10;;;9.00;99.90;;;;;;5030822;28;20434;-61
2023/04/21 03:59:42;;;;;;;2.78;1.73;;;9.00;99.90;;;;;;5022671;28;20382;-62
2023/04/21 04:02:08;;;;;;;0.70;0.70;;;9.00;99.90;;;;;;5023167;28;20160;-62
2023/04/21 04:04:34;;;;;;;1.17;1.10;;;9.00;99.90;;;;;;5033303;28;20508;-62
2023/04/21 04:06:59;;;;;;;0.75;0.65;;;9.00;99.90;;;;;;5032618;28;20504;-62
2023/04/21 04:09:25;;;;;;;11.35;3.55;;;9.00;99.90;;;;;;5018150;28;20132;-62
2023/04/21 04:11:51;;;;;;;0.82;0.82;;;8.90;99.90;;;;;;5021858;28;20120;-62
2023/04/21 04:14:16;;;;;;;0.68;0.68;;;9.00;99.90;;;;;;5016643;28;20054;-61
2023/04/21 04:16:42;;;;;;;0.57;0.57;;;8.90;99.90;;;;;;5023822;28;20393;-62
2023/04/21 04:19:08;;;;;;;0.32;0.30;;;8.90;99.90;;;;;;5031877;28;20045;-62
2023/04/21 04:21:33;;;;;;;1.08;1.05;;;8.90;99.90;;;;;;5025505;28;20034;-62
2023/04/21 04:24:01;;;;;;;0.10;0.10;;;8.90;99.90;;;;;;5024581;28;20491;-62
2023/04/21 04:26:27;;;;;;;1.15;1.05;;;8.80;99.90;;;;;;5026555;28;20512;-62
2023/04/21 04:28:55;;;;;;;1.85;1.08;;;8.80;99.90;;;;;;5025879;28;20037;-62
2023/04/21 04:31:21;;;;;;;0.15;0.15;;;8.80;99.90;;;;;;5031846;28;20486;-62
2023/04/21 04:33:47;;;;;;;0.57;0.57;;;8.80;99.90;;;;;;5029453;28;20053;-62
2023/04/21 04:36:12;;;;;;;1.17;1.10;;;8.80;99.90;;;;;;5020213;28;20054;-61
2023/04/21 04:38:39;;;;;;;0.65;0.65;;;8.90;99.90;;;;;;5025555;28;20119;-62
2023/04/21 04:41:05;;;;;;;0.35;0.35;;;8.90;99.90;;;;;;5032659;28;20044;-62
2023/04/21 04:43:35;;;;;;;0.10;0.10;;;9.00;99.90;;;;;;5020621;28;20045;-62
2023/04/21 04:46:02;;;;;;;0.95;0.95;;;9.00;99.90;;;;;;5018761;28;20037;-62
2023/04/21 04:48:27;;;;;;;0.98;0.93;;;9.00;99.90;;;;;;5031983;28;20045;-62
2023/04/21 04:50:53;;;;;;;0.52;0.47;;;9.00;99.90;;;;;;5022954;28;20505;-62
2023/04/21 04:53:19;;;;;;;1.95;1.10;;;9.00;99.90;;;;;;5025848;28;20124;-62
2023/04/21 04:55:46;;;;;;;0.75;0.75;;;9.00;99.90;;;;;;5031798;28;20037;-62
2023/04/21 04:58:12;;;;;;;0.20;0.20;;;9.00;99.90;;;;;;5030993;28;20073;-61
2023/04/21 05:00:37;;;;;;;6.38;1.75;;;9.00;99.90;;;;;;5015305;28;20046;-62
2023/04/21 05:03:03;;;;;;;0.50;0.50;;;9.00;99.90;;;;;;5021650;28;20057;-61
2023/04/21 05:05:29;;;;;;;1.00;0.95;;;9.00;99.90;;;;;;5013373;28;20125;-62
2023/04/21 05:07:54;;;;;;;0.38;0.38;;;9.10;99.90;;;;;;5024150;28;20051;-62
2023/04/21 05:10:20;;;;;;;0.82;0.82;;;9.00;99.90;;;;;;5018574;28;20038;-62
2023/04/21 05:12:45;;;;;;;0.70;0.70;;;9.00;99.90;;;;;;5031947;28;20045;-62
2023/04/21 05:15:11;;;;;;;0.30;0.30;;;9.00;99.90;;;;;;5032274;28;20052;-62
2023/04/21 05:17:37;;;;;;;0.30;0.30;;;9.10;99.90;;;;;;5024046;28;20038;-61
2023/04/21 05:20:06;;;;;;;0.40;0.40;;;9.10;99.90;;;;;;5020837;28;20913;-62
2023/04/21 05:22:39;;;;;;;1.67;1.25;;;9.10;99.90;;;;;;5031513;28;20084;-62
2023/04/21 05:25:05;;;;;;;0.20;0.20;;;9.20;99.90;;;;;;5029197;28;20156;-61
2023/04/21 05:27:32;;;;;;;0.25;0.25;;;9.20;99.90;;;;;;5018716;28;20061;-61
2023/04/21 05:29:58;;;;;;;0.20;0.20;;;9.20;99.90;;;;;;5031726;28;20041;-62
2023/04/21 05:32:24;;;;;;;0.43;0.43;;;9.30;99.90;;;;;;5030719;28;20040;-61
2023/04/21 05:34:49;;;;;;;0.10;0.10;;;9.30;99.90;;;;;;5025714;28;20065;-62
2023/04/21 05:37:15;;;;;;;0.73;0.70;;;9.30;99.90;;;;;;5013261;28;20083;-61
2023/04/21 05:39:40;;;;;;;2.38;1.38;;;9.30;99.90;;;;;;5030621;28;20067;-62
2023/04/21 05:42:09;;;;;;;0.45;0.45;;;9.30;99.90;;;;;;5018825;28;20089;-62
2023/04/21 05:44:34;;;;;;;0.17;0.17;;;9.30;99.90;;;;;;5023044;28;20485;-62
2023/04/21 05:47:00;;;;;;;0.95;0.88;;;9.30;99.90;;;;;;5030603;28;20053;-62
2023/04/21 05:49:25;;;;;;;0.40;0.40;;;9.40;99.90;;;;;;5031330;28;20059;-61
2023/04/21 05:51:51;;;;;;;0.52;0.52;;;9.40;99.90;;;;;;5011068;28;20069;-61
2023/04/21 05:54:17;;;;;;;0.20;0.20;;;9.40;99.90;;;;;;5018781;28;20045;-62
2023/04/21 05:56:42;;;;;;;1.92;1.83;;;9.40;99.90;;;;;;5025147;28;20088;-61
2023/04/21 05:59:08;;;;;;;0.43;0.43;;;9.40;99.90;;;;;;5018924;28;20046;-61
2023/04/21 06:01:33;;;;;;;0.40;0.40;;;9.50;99.90;;;;;;5020361;28;20038;-62
2023/04/21 06:03:59;;;;;;;0.20;0.20;;;9.50;99.90;;;;;;5019849;28;20053;-61
2023/04/21 06:06:26;;;;;;;0.30;0.30;;;9.50;99.90;;;;;;5024760;28;20041;-62
2023/04/21 06:08:52;;;;;;;0.50;0.50;;;9.60;99.90;;;;;;5020319;28;20132;-62
2023/04/21 06:11:17;;;;;;;1.48;1.02;;;9.60;99.90;;;;;;5015424;28;20477;-62
2023/04/21 06:13:43;;;;;;;0.20;0.20;;;9.60;99.90;;;;;;5019996;28;20042;-61
2023/04/21 06:16:09;;;;;;;0.20;0.20;;;9.60;99.90;;;;;;5029496;28;20075;-61
2023/04/21 06:18:34;;;;;;;1.55;0.90;;;9.70;99.90;;;;;;5016455;28;20045;-61
2023/04/21 06:21:00;;;;;;;0.50;0.50;;;9.80;99.90;;;;;;5018933;28;20085;-62
2023/04/21 06:23:25;;;;;;;3.80;0.65;;;9.80;99.90;;;;;;5029014;28;20045;-62
2023/04/21 06:26:04;;;;;;;0.13;0.13;;;9.90;99.90;;;;;;5018999;28;20469;-61
2023/04/21 06:28:31;;;;;;;8.80;1.92;;;9.90;99.90;;;;;;5026164;28;20045;-61
2023/04/21 06:30:57;;;;;;;0.30;0.30;;;10.00;99.90;;;;;;5017315;28;20056;-62
2023/04/21 06:33:22;;;;;;;0.65;0.65;;;10.00;99.90;;;;;;5030671;28;20561;-62
2023/04/21 06:35:48;;;;;;;0.50;0.50;;;10.10;99.90;;;;;;5025676;28;20057;-62
2023/04/21 06:38:14;;;;;;;0.65;0.65;;;10.10;99.90;;;;;;5013602;28;20554;-61
2023/04/21 06:40:39;;;;;;;0.82;0.82;;;10.20;99.90;;;;;;5027070;28;20588;-62
2023/04/21 06:43:05;;;;;;;0.30;0.30;;;10.20;99.90;;;;;;5030023;28;20049;-62
2023/04/21 06:45:31;;;;;;;0.35;0.35;;;10.30;99.90;;;;;;5017191;28;20049;-61
2023/04/21 06:47:56;;;;;;;0.85;0.85;;;10.40;99.90;;;;;;5022226;28;20116;-61
2023/04/21 06:50:22;;;;;;;1.05;0.70;;;10.40;99.90;;;;;;5018290;28;20083;-62
2023/04/21 06:52:47;;;;;;;0.15;0.15;;;10.50;99.90;;;;;;5020841;28;20041;-62
2023/04/21 06:55:13;;;;;;;0.10;0.10;;;10.60;99.90;;;;;;5030717;28;20041;-61
2023/04/21 06:57:38;;;;;;;0.82;0.82;;;10.60;99.90;;;;;;5025599;28;20052;-61
2023/04/21 07:00:05;;;;;;;0.93;0.82;;;10.60;99.90;;;;;;5016498;28;20037;-62
2023/04/21 07:02:30;;;;;;;0.32;0.32;;;10.60;99.90;;;;;;5027548;28;20042;-61
2023/04/21 07:04:56;;;;;;;0.45;0.45;;;10.60;99.90;;;;;;5025394;28;20045;-62
2023/04/21 07:07:21;;;;;;;0.30;0.30;;;10.60;99.90;;;;;;5030281;28;20049;-61
2023/04/21 07:09:47;;;;;;;0.93;0.93;;;10.70;99.90;;;;;;5027256;28;20045;-61
2023/04/21 07:12:13;;;;;;;1.20;1.13;;;10.80;99.90;;;;;;5023287;28;20050;-62
2023/04/21 07:14:39;;;;;;;0.10;0.10;;;10.90;99.90;;;;;;5027335;28;20493;-62
2023/04/21 07:17:04;;;;;;;0.45;0.45;;;10.90;99.90;;;;;;5029838;28;20377;-62
2023/04/21 07:19:30;;;;;;;0.40;0.40;;;11.00;99.90;;;;;;5012009;28;20055;-62
2023/04/21 07:21:57;;;;;;;1.80;0.88;;;11.10;99.90;;;;;;5020434;28;20048;-62
2023/04/21 07:24:22;;;;;;;3.42;1.15;;;11.20;99.90;;;;;;5031572;28;20080;-62
2023/04/21 07:26:48;;;;;;;0.40;0.40;;;11.30;99.90;;;;;;5032542;28;20073;-62
2023/04/21 07:29:13;;;;;;;0.32;0.32;;;11.40;99.90;;;;;;5028762;28;20434;-62
2023/04/21 07:31:39;;;;;;;0.20;0.20;;;11.40;99.90;;;;;;5022950;28;20493;-62
2023/04/21 07:34:05;;;;;;;0.38;0.38;;;11.50;99.90;;;;;;5029442;28;20044;-62
2023/04/21 07:36:30;;;;;;;0.68;0.68;;;11.50;99.90;;;;;;5019528;28;20052;-62
2023/04/21 07:38:56;;;;;;;0.50;0.50;;;11.50;99.90;;;;;;5020162;28;20050;-62
2023/04/21 07:41:22;;;;;;;0.68;0.68;;;11.60;99.90;;;;;;5022597;28;20050;-62
2023/04/21 07:43:47;;;;;;;0.45;0.45;;;11.60;99.90;;;;;;5021056;28;20128;-62
2023/04/21 07:46:13;;;;;;;2.58;1.33;;;11.70;99.90;;;;;;5025477;28;20053;-62
2023/04/21 07:48:39;;;;;;;0.10;0.10;;;11.70;99.90;;;;;;5017416;28;20038;-62
2023/04/21 07:51:05;;;;;;;3.10;1.58;;;11.70;99.90;;;;;;5020357;28;20058;-62
2023/04/21 07:53:31;;;;;;;0.10;0.10;;;11.80;99.90;;;;;;5023341;28;20139;-62
2023/04/21 07:55:57;;;;;;;0.35;0.35;;;11.90;99.90;;;;;;5027911;28;20545;-62
2023/04/21 07:58:22;;;;;;;1.48;1.38;;;12.00;99.90;;;;;;5033047;28;20059;-61
2023/04/21 08:00:48;;;;;;;0.85;0.85;;;12.10;99.90;;;;;;5032667;28;20045;-62
2023/04/21 08:03:14;;;;;;;0.20;0.20;;;12.20;99.90;;;;;;5020510;28;20034;-62
2023/04/21 08:05:40;;;;;;;0.70;0.28;;;12.20;99.90;;;;;;5025348;28;20049;-62
2023/04/21 08:08:06;;;;;;;0.10;0.10;;;12.30;99.90;;;;;;5028548;28;20052;-62
2023/04/21 08:10:32;;;;;;;0.63;0.63;;;12.40;99.90;;;;;;5022809;28;20056;-62
2023/04/21 08:12:58;;;;;;;3.70;2.03;;;12.60;99.90;;;;;;5032430;28;20152;-62
2023/04/21 08:15:23;;;;;;;1.45;1.35;;;12.70;99.90;;;;;;5033064;28;20469;-62
2023/04/21 08:17:49;;;;;;;0.20;0.20;;;12.80;99.90;;;;;;5021409;28;20464;-62
2023/04/21 08:20:15;;;;;;;0.30;0.30;;;12.90;99.90;;;;;;5026174;28;20568;-62
2023/04/21 08:22:40;;;;;;;1.17;0.88;;;13.10;99.90;;;;;;5032484;28;20081;-62
2023/04/21 08:25:06;;;;;;;1.88;1.77;;;13.20;99.90;;;;;;5024254;28;20041;-62
2023/04/21 08:27:32;;;;;;;0.40;0.40;;;13.30;99.90;;;;;;5027290;28;20049;-62
2023/04/21 08:29:59;;;;;;;0.32;0.32;;;13.30;99.90;;;;;;5032840;28;20120;-62
2023/04/21 08:32:25;;;;;;;0.77;0.63;;;13.60;99.90;;;;;;5032302;28;20049;-62
2023/04/21 08:34:52;;;;;;;0.38;0.38;;;14.00;99.90;;;;;;5017204;28;20095;-62
2023/04/21 08:37:18;;;;;;;0.60;0.55;;;14.70;99.90;;;;;;5024542;28;20340;-62
2023/04/21 08:39:45;;;;;;;0.55;0.55;;;15.10;99.90;;;;;;5013155;28;20038;-62
2023/04/21 08:42:15;;;;;;;2.42;1.25;;;15.70;99.90;;;;;;5023251;28;20053;-63
2023/04/21 08:44:42;;;;;;;0.38;0.38;;;15.80;99.90;;;;;;5015012;28;20057;-62
2023/04/21 08:47:12;;;;;;;0.47;0.43;;;16.10;99.90;;;;;;5029266;28;20111;-62
2023/04/21 08:49:39;;;;;;;0.55;0.55;;;16.20;99.90;;;;;;5031687;28;20041;-62
2023/04/21 08:52:05;;;;;;;11.27;4.88;;;16.40;99.90;;;;;;5029581;28;20450;-62
2023/04/21 08:54:31;;;;;;;0.60;0.55;;;16.70;99.90;;;;;;5011861;28;20150;-62
2023/04/21 08:56:57;;;;;;;1.50;1.20;;;17.00;99.90;;;;;;5020317;28;20067;-62
2023/04/21 08:59:23;;;;;;;0.10;0.10;;;17.10;99.90;;;;;;5022005;28;20375;-62
2023/04/21 09:02:08;;;;;;;3.72;2.30;;;17.60;99.90;;;;;;5022577;28;20044;-63
2023/04/21 09:04:36;;;;;;;1.95;1.13;;;17.60;99.90;;;;;;5031891;28;20128;-62
2023/04/21 09:07:02;;;;;;;0.43;0.43;;;17.90;99.90;;;;;;5020566;28;20117;-62
2023/04/21 09:09:28;;;;;;;1.20;1.10;;;17.80;99.90;;;;;;5024946;28;20171;-62
2023/04/21 09:12:00;;;;;;;0.60;0.60;;;18.10;99.90;;;;;;5031994;28;20414;-63
2023/04/21 09:14:33;;;;;;;0.20;0.20;;;18.30;99.90;;;;;;5031628;28;20485;-62
2023/04/21 09:17:03;;;;;;;2.47;1.85;;;18.50;99.90;;;;;;5021194;28;20053;-63
2023/04/21 09:19:32;;;;;;;1.25;1.25;;;18.10;99.90;;;;;;5015443;28;20397;-62
2023/04/21 09:21:59;;;;;;;1.15;1.00;;;18.20;99.90;;;;;;5031970;28;20049;-62
2023/04/21 09:24:25;;;;;;;0.32;0.25;;;18.10;99.90;;;;;;5016811;28;20550;-63
2023/04/21 09:26:52;;;;;;;3.58;2.92;;;18.50;99.90;;;;;;5023985;28;20045;-63
2023/04/21 09:29:21;;;;;;;0.40;0.40;;;19.00;99.90;;;;;;5031692;28;20041;-62
2023/04/21 09:31:46;;;;;;;1.15;0.90;;;18.70;99.90;;;;;;5019759;28;20042;-63
2023/04/21 09:34:23;;;;;;;4.65;1.30;;;18.10;99.90;;;;;;5025620;28;20451;-62
2023/04/21 09:36:59;;;;;;;1.75;1.23;;;18.00;99.90;;;;;;5026870;28;20048;-62
2023/04/21 09:39:25;;;;;;;2.72;0.93;;;17.70;99.90;;;;;;5030589;28;20045;-62
2023/04/21 09:41:50;;;;;;;3.67;2.35;;;17.50;99.90;;;;;;5028909;28;20049;-62
2023/04/21 09:44:16;;;;;;;1.05;1.00;;;17.80;99.90;;;;;;5019834;28;20504;-62
2023/04/21 09:46:45;;;;;;;1.25;1.15;;;17.60;99.90;;;;;;5024293;28;20042;-62
2023/04/21 09:49:15;;;;;;;2.28;1.33;;;17.80;99.90;;;;;;5031110;28;20045;-62
2023/04/21 09:51:42;;;;;;;0.57;0.57;;;17.90;99.90;;;;;;5026724;28;20112;-62
2023/04/21 09:54:19;;;;;;;5.82;1.73;;;17.70;99.90;;;;;;5022212;28;20128;-63
2023/04/21 09:56:50;;;;;;;0.47;0.47;;;17.60;99.90;;;;;;5021214;28;20042;-62
2023/04/21 09:59:19;;;;;;;1.10;0.98;;;17.50;99.90;;;;;;5026187;28;20449;-62
2023/04/21 10:01:48;;;;;;;1.67;1.13;;;17.40;99.90;;;;;;5030751;28;20037;-62
2023/04/21 10:04:14;;;;;;;0.45;0.45;;;17.30;99.90;;;;;;5054099;28;20065;-62
2023/04/21 10:06:40;;;;;;;2.67;1.38;;;17.20;99.90;;;;;;5024893;28;20033;-62
2023/04/21 10:09:08;;;;;;;0.20;0.20;;;17.30;99.90;;;;;;5031365;28;20049;-62
2023/04/21 10:11:35;;;;;;;1.40;1.30;;;17.30;99.90;;;;;;5025232;28;20056;-62
2023/04/21 10:14:02;;;;;;;0.98;0.98;;;17.20;99.90;;;;;;5021437;28;20088;-62
2023/04/21 10:16:27;;;;;;;1.95;0.75;;;17.30;99.90;;;;;;5030639;28;20072;-62
2023/04/21 10:18:53;;;;;;;0.47;0.47;;;17.70;99.90;;;;;;5028686;28;20081;-62
2023/04/21 10:21:20;;;;;;;1.15;1.13;;;18.20;99.90;;;;;;5022811;28;20723;-63
2023/04/21 10:23:52;;;;;;;0.28;0.28;;;18.00;99.90;;;;;;5030554;28;20524;-62
2023/04/21 10:26:33;;;;;;;2.65;1.17;;;18.10;99.90;;;;;;5024183;28;20045;-62
2023/04/21 10:29:06;;;;;;;0.40;0.40;;;18.40;99.90;;;;;;5026490;28;20052;-62
2023/04/21 10:31:35;;;;;;;0.10;0.10;;;18.60;99.90;;;;;;5019142;28;20049;-62
2023/04/21 10:34:07;;;;;;;4.55;2.17;;;18.70;99.90;;;;;;5025455;28;20045;-62
2023/04/21 10:36:53;;;;;;;9.32;3.60;;;18.70;99.90;;;;;;5020638;28;20045;-62
2023/04/21 10:39:28;;;;;;;1.98;1.60;;;18.50;99.90;;;;;;5009971;28;20073;-62
2023/04/21 10:42:12;;;;;;;0.25;0.25;;;18.20;99.90;;;;;;5026561;28;20041;-62
2023/04/21 10:45:04;;;;;;;;;;;17.90;99.90;;;;;;5019314;28;20045;-62
2023/04/21 10:47:40;;;;;;;3.08;1.45;;;17.90;99.90;;;;;;5014679;28;20304;-62
2023/04/21 10:50:14;;;;;;;0.40;0.40;;;18.30;99.90;;;;;;5019425;28;20556;-62
2023/04/21 10:52:43;;;;;;;0.10;0.10;;;18.70;99.90;;;;;;5020319;28;20053;-62
2023/04/21 10:55:11;;;;;;;0.35;0.35;;;19.10;99.90;;;;;;5029521;28;20048;-62
2023/04/21 10:57:41;;;;;;;0.20;0.20;;;19.30;99.90;;;;;;5021282;28;20132;-62
2023/04/21 11:00:08;;;;;;;0.40;0.40;;;19.60;99.90;;;;;;5018375;28;20109;-62
2023/04/21 11:02:34;;;;;;;1.13;1.02;;;19.60;99.90;;;;;;5029394;28;20148;-62
2023/04/21 11:05:00;;;;;;;1.00;0.85;;;19.60;99.90;;;;;;5023655;28;20421;-62
2023/04/21 11:07:26;;;;;;;0.43;0.43;;;19.80;99.90;;;;;;5020648;28;20124;-62
2023/04/21 11:09:59;;;;;;;0.55;0.55;;;19.90;99.90;;;;;;5029166;28;20513;-63
2023/04/21 11:12:30;;;;;;;0.85;0.85;;;20.20;99.90;;;;;;5030092;28;20052;-62
2023/04/21 11:14:56;;;;;;;1.75;1.65;;;20.20;99.90;;;;;;5022590;28;20053;-63
2023/04/21 11:17:23;;;;;;;2.47;1.48;;;20.40;99.90;;;;;;5018019;28;20489;-62
2023/04/21 11:19:55;;;;;;;0.85;0.85;;;19.80;99.90;;;;;;5013339;28;20053;-62
2023/04/21 11:22:23;;;;;;;0.28;0.28;;;20.00;99.90;;;;;;5022662;28;20168;-63
2023/04/21 11:24:52;;;;;;;1.90;1.05;;;19.80;99.90;;;;;;5013345;28;20046;-63
2023/04/21 11:27:18;;;;;;;0.20;0.20;;;19.70;99.90;;;;;;5023762;28;20064;-63
2023/04/21 11:29:47;;;;;;;0.57;0.57;;;19.60;99.90;;;;;;5029196;28;20438;-63
2023/04/21 11:32:13;;;;;;;1.85;1.10;;;19.50;99.90;;;;;;5027175;28;20056;-62
2023/04/21 11:34:39;;;;;;;3.58;2.85;;;19.20;99.90;;;;;;5026490;28;20128;-62
2023/04/21 11:37:08;;;;;;;0.20;0.20;;;19.00;99.90;;;;;;5016360;28;20133;-63
2023/04/21 11:39:34;;;;;;;1.85;1.55;;;18.90;99.90;;;;;;5017542;28;20080;-63
2023/04/21 11:42:01;;;;;;;1.50;1.10;;;19.00;99.90;;;;;;5019394;28;20041;-63
2023/04/21 11:44:35;;;;;;;0.75;0.75;;;19.10;99.90;;;;;;5024881;28;20053;-62
2023/04/21 11:47:12;;;;;;;31.15;4.38;;;19.40;99.90;;;;;;5028641;28;20053;-63
2023/04/21 11:49:47;;;;;;;0.40;0.40;;;19.50;99.90;;;;;;5029454;28;20390;-63
2023/04/21 11:52:26;;;;;;;0.25;0.25;;;19.90;99.90;;;;;;5026427;28;20509;-63
2023/04/21 11:55:05;;;;;;;0.52;0.52;;;19.90;99.90;;;;;;5020552;28;20052;-63
2023/04/21 11:57:32;;;;;;;0.30;0.30;;;19.60;99.90;;;;;;5010759;28;20044;-63
2023/04/21 11:59:59;;;;;;;0.17;0.17;;;19.50;99.90;;;;;;5024206;28;20041;-63
2023/04/21 12:02:29;;;;;;;0.40;0.40;;;19.40;99.90;;;;;;5029844;28;20049;-63
2023/04/21 12:05:02;;;;;;;0.10;0.10;;;19.50;99.90;;;;;;5018331;28;20137;-63
2023/04/21 12:07:30;;;;;;;0.82;0.82;;;19.40;99.90;;;;;;5019662;28;20052;-63
2023/04/21 12:09:56;;;;;;;0.00;0.00;;;19.40;99.90;;;;;;5024313;28;20142;-63
2023/04/21 12:12:23;;;;;;;0.28;0.25;;;19.40;99.90;;;;;;5032554;28;20409;-63
2023/04/21 12:14:50;;;;;;;0.65;0.45;;;19.50;99.90;;;;;;5033193;28;20065;-63
2023/04/21 12:17:16;;;;;;;0.43;0.43;;;19.80;99.90;;;;;;5021503;28;20444;-63
2023/04/21 12:19:42;;;;;;;1.17;0.40;;;20.00;99.90;;;;;;5019978;28;20059;-63
2023/04/21 12:22:10;;;;;;;1.23;0.98;;;20.20;99.90;;;;;;5025558;28;20047;-63
2023/04/21 12:24:36;;;;;;;5.05;1.95;;;20.50;99.90;;;;;;5025132;28;20045;-63
2023/04/21 12:27:02;;;;;;;0.17;0.17;;;20.80;99.90;;;;;;5032088;28;20064;-63
2023/04/21 12:29:28;;;;;;;0.95;0.57;;;20.50;99.90;;;;;;5030683;28;20108;-63
2023/04/21 12:31:53;;;;;;;3.60;1.27;;;20.60;99.90;;;;;;5027517;28;20053;-63
2023/04/21 12:34:19;;;;;;;0.03;0.03;;;21.10;99.90;;;;;;5029132;28;20081;-63
2023/04/21 12:36:45;;;;;;;0.28;0.28;;;21.40;99.90;;;;;;5022104;28;20040;-63
2023/04/21 12:39:12;;;;;;;0.88;0.63;;;21.40;99.60;;;;;;5015228;28;20046;-63
2023/04/21 12:41:38;;;;;;;0.28;0.28;;;21.80;99.90;;;;;;5012554;28;20049;-63
2023/04/21 12:44:03;;;;;;;0.40;0.38;;;22.10;99.90;;;;;;5021620;28;20452;-63
2023/04/21 12:46:29;;;;;;;0.30;0.30;;;22.40;98.50;;;;;;5032454;28;20087;-63
2023/04/21 12:48:55;;;;;;;1.58;1.48;;;22.50;99.40;;;;;;5020533;28;20473;-63
2023/04/21 12:51:20;;;;;;;1.85;1.00;;;22.20;98.10;;;;;;5021765;28;20049;-63